sensor_id;sensor_type;location;lat;lon;timestamp;P1;durP1;ratioP1;P2;durP2;ratioP2
1847;SDS011;924;52.448;13.356;2022-07-06T00:01:47;1.40;;;1.20;;
1847;SDS011;924;52.448;13.356;2022-07-06T00:04:12;4.37;;;1.50;;
1847;SDS011;924;52.448;13.356;2022-07-06T00:06:37;1.57;;;1.20;;
1847;SDS011;924;52.448;13.356;2022-07-06T00:09:03;1.13;;;1.03;;
1847;SDS011;924;52.448;13.356;2022-07-06T00:11:29;2.60;;;1.33;;
1847;SDS011;924;52.448;13.356;2022-07-06T00:13:54;1.50;;;1.40;;
1847;SDS011;924;52.448;13.356;2022-07-06T00:16:21;3.67;;;1.67;;
1847;SDS011;924;52.448;13.356;2022-07-06T00:18:47;3.47;;;1.47;;
1847;SDS011;924;52.448;13.356;2022-07-06T00:21:12;1.97;;;1.40;;
1847;SDS011;924;52.448;13.356;2022-07-06T00:23:37;2.00;;;1.30;;
1847;SDS011;924;52.448;13.356;2022-07-06T00:26:03;3.67;;;1.67;;
1847;SDS011;924;52.448;13.356;2022-07-06T00:28:28;7.97;;;1.53;;
1847;SDS011;924;52.448;13.356;2022-07-06T00:30:54;3.27;;;1.23;;
1847;SDS011;924;52.448;13.356;2022-07-06T00:33:19;3.10;;;1.30;;
1847;SDS011;924;52.448;13.356;2022-07-06T00:35:44;2.03;;;1.20;;
1847;SDS011;924;52.448;13.356;2022-07-06T00:38:10;1.70;;;1.60;;
1847;SDS011;924;52.448;13.356;2022-07-06T00:40:35;1.97;;;1.50;;
1847;SDS011;924;52.448;13.356;2022-07-06T00:43:00;2.20;;;1.50;;
1847;SDS011;924;52.448;13.356;2022-07-06T00:45:25;2.10;;;1.20;;
1847;SDS011;924;52.448;13.356;2022-07-06T00:47:51;4.73;;;1.20;;
1847;SDS011;924;52.448;13.356;2022-07-06T00:50:17;3.87;;;1.40;;
1847;SDS011;924;52.448;13.356;2022-07-06T00:52:46;1.77;;;1.27;;
1847;SDS011;924;52.448;13.356;2022-07-06T00:55:12;2.27;;;1.23;;
1847;SDS011;924;52.448;13.356;2022-07-06T00:57:37;1.57;;;1.20;;
1847;SDS011;924;52.448;13.356;2022-07-06T01:00:03;2.00;;;1.30;;
1847;SDS011;924;52.448;13.356;2022-07-06T01:02:32;1.33;;;1.23;;
1847;SDS011;924;52.448;13.356;2022-07-06T01:04:57;1.47;;;1.37;;
1847;SDS011;924;52.448;13.356;2022-07-06T01:07:23;2.80;;;1.47;;
1847;SDS011;924;52.448;13.356;2022-07-06T01:09:48;1.50;;;1.40;;
1847;SDS011;924;52.448;13.356;2022-07-06T01:12:14;4.70;;;1.60;;
1847;SDS011;924;52.448;13.356;2022-07-06T01:14:39;4.23;;;1.80;;
1847;SDS011;924;52.448;13.356;2022-07-06T01:17:04;7.23;;;1.80;;
1847;SDS011;924;52.448;13.356;2022-07-06T01:19:30;1.77;;;1.30;;
1847;SDS011;924;52.448;13.356;2022-07-06T01:21:55;4.20;;;1.47;;
1847;SDS011;924;52.448;13.356;2022-07-06T01:24:21;2.23;;;1.50;;
1847;SDS011;924;52.448;13.356;2022-07-06T01:26:46;2.87;;;1.50;;
1847;SDS011;924;52.448;13.356;2022-07-06T01:29:12;3.30;;;1.60;;
1847;SDS011;924;52.448;13.356;2022-07-06T01:31:44;3.60;;;1.47;;
1847;SDS011;924;52.448;13.356;2022-07-06T01:34:10;2.10;;;1.90;;
1847;SDS011;924;52.448;13.356;2022-07-06T01:36:36;1.53;;;1.13;;
1847;SDS011;924;52.448;13.356;2022-07-06T01:39:01;2.07;;;1.33;;
1847;SDS011;924;52.448;13.356;2022-07-06T01:41:26;2.23;;;1.30;;
1847;SDS011;924;52.448;13.356;2022-07-06T01:43:52;6.60;;;1.67;;
1847;SDS011;924;52.448;13.356;2022-07-06T01:46:17;1.63;;;1.53;;
1847;SDS011;924;52.448;13.356;2022-07-06T01:48:43;2.53;;;1.43;;
1847;SDS011;924;52.448;13.356;2022-07-06T01:51:08;4.20;;;1.60;;
1847;SDS011;924;52.448;13.356;2022-07-06T01:53:34;3.40;;;1.53;;
1847;SDS011;924;52.448;13.356;2022-07-06T01:55:59;2.07;;;1.40;;
1847;SDS011;924;52.448;13.356;2022-07-06T01:58:24;1.50;;;1.40;;
1847;SDS011;924;52.448;13.356;2022-07-06T02:00:49;2.20;;;1.73;;
1847;SDS011;924;52.448;13.356;2022-07-06T02:03:15;2.23;;;1.60;;
1847;SDS011;924;52.448;13.356;2022-07-06T02:05:40;2.40;;;2.00;;
1847;SDS011;924;52.448;13.356;2022-07-06T02:08:05;3.23;;;2.10;;
1847;SDS011;924;52.448;13.356;2022-07-06T02:10:30;2.10;;;1.63;;
1847;SDS011;924;52.448;13.356;2022-07-06T02:12:56;2.80;;;1.40;;
1847;SDS011;924;52.448;13.356;2022-07-06T02:15:21;4.23;;;1.77;;
1847;SDS011;924;52.448;13.356;2022-07-06T02:17:46;3.10;;;1.60;;
1847;SDS011;924;52.448;13.356;2022-07-06T02:20:11;3.37;;;1.73;;
1847;SDS011;924;52.448;13.356;2022-07-06T02:22:37;1.67;;;1.40;;
1847;SDS011;924;52.448;13.356;2022-07-06T02:25:02;2.80;;;1.60;;
1847;SDS011;924;52.448;13.356;2022-07-06T02:27:28;1.73;;;1.63;;
1847;SDS011;924;52.448;13.356;2022-07-06T02:29:53;4.30;;;1.63;;
1847;SDS011;924;52.448;13.356;2022-07-06T02:32:18;2.07;;;1.67;;
1847;SDS011;924;52.448;13.356;2022-07-06T02:34:43;2.77;;;1.90;;
1847;SDS011;924;52.448;13.356;2022-07-06T02:37:09;2.53;;;1.47;;
1847;SDS011;924;52.448;13.356;2022-07-06T02:39:34;1.70;;;1.53;;
1847;SDS011;924;52.448;13.356;2022-07-06T02:41:59;2.00;;;1.80;;
1847;SDS011;924;52.448;13.356;2022-07-06T02:44:25;1.77;;;1.67;;
1847;SDS011;924;52.448;13.356;2022-07-06T02:46:50;2.50;;;1.90;;
1847;SDS011;924;52.448;13.356;2022-07-06T02:49:15;2.27;;;1.70;;
1847;SDS011;924;52.448;13.356;2022-07-06T02:51:40;2.00;;;1.47;;
1847;SDS011;924;52.448;13.356;2022-07-06T02:54:05;3.27;;;1.73;;
1847;SDS011;924;52.448;13.356;2022-07-06T02:56:31;4.00;;;1.70;;
1847;SDS011;924;52.448;13.356;2022-07-06T02:58:56;3.20;;;1.33;;
1847;SDS011;924;52.448;13.356;2022-07-06T03:01:21;3.50;;;2.33;;
1847;SDS011;924;52.448;13.356;2022-07-06T03:03:46;2.70;;;1.57;;
1847;SDS011;924;52.448;13.356;2022-07-06T03:06:12;4.10;;;1.60;;
1847;SDS011;924;52.448;13.356;2022-07-06T03:08:37;2.00;;;1.80;;
1847;SDS011;924;52.448;13.356;2022-07-06T03:11:02;3.00;;;1.77;;
1847;SDS011;924;52.448;13.356;2022-07-06T03:13:27;2.57;;;1.77;;
1847;SDS011;924;52.448;13.356;2022-07-06T03:15:53;2.10;;;1.60;;
1847;SDS011;924;52.448;13.356;2022-07-06T03:18:19;2.20;;;1.87;;
1847;SDS011;924;52.448;13.356;2022-07-06T03:20:44;2.00;;;1.57;;
1847;SDS011;924;52.448;13.356;2022-07-06T03:23:09;2.60;;;1.47;;
1847;SDS011;924;52.448;13.356;2022-07-06T03:25:34;3.13;;;1.70;;
1847;SDS011;924;52.448;13.356;2022-07-06T03:28:00;6.40;;;3.53;;
1847;SDS011;924;52.448;13.356;2022-07-06T03:30:25;5.37;;;2.90;;
1847;SDS011;924;52.448;13.356;2022-07-06T03:32:50;2.00;;;1.80;;
1847;SDS011;924;52.448;13.356;2022-07-06T03:35:15;9.40;;;3.70;;
1847;SDS011;924;52.448;13.356;2022-07-06T03:37:40;4.53;;;1.80;;
1847;SDS011;924;52.448;13.356;2022-07-06T03:40:06;1.60;;;1.50;;
1847;SDS011;924;52.448;13.356;2022-07-06T03:42:31;1.73;;;1.37;;
1847;SDS011;924;52.448;13.356;2022-07-06T03:44:57;1.97;;;1.50;;
1847;SDS011;924;52.448;13.356;2022-07-06T03:47:22;1.80;;;1.70;;
1847;SDS011;924;52.448;13.356;2022-07-06T03:49:47;2.40;;;1.60;;
1847;SDS011;924;52.448;13.356;2022-07-06T03:52:12;2.77;;;2.17;;
1847;SDS011;924;52.448;13.356;2022-07-06T03:54:37;2.17;;;1.53;;
1847;SDS011;924;52.448;13.356;2022-07-06T03:57:03;2.03;;;1.83;;
1847;SDS011;924;52.448;13.356;2022-07-06T03:59:28;3.20;;;1.50;;
1847;SDS011;924;52.448;13.356;2022-07-06T04:01:53;2.63;;;2.13;;
1847;SDS011;924;52.448;13.356;2022-07-06T04:04:18;2.27;;;1.70;;
1847;SDS011;924;52.448;13.356;2022-07-06T04:06:44;5.40;;;1.77;;
1847;SDS011;924;52.448;13.356;2022-07-06T04:09:09;2.00;;;1.60;;
1847;SDS011;924;52.448;13.356;2022-07-06T04:11:34;3.17;;;1.80;;
1847;SDS011;924;52.448;13.356;2022-07-06T04:13:59;2.20;;;1.80;;
1847;SDS011;924;52.448;13.356;2022-07-06T04:16:25;2.47;;;2.27;;
1847;SDS011;924;52.448;13.356;2022-07-06T04:18:50;2.30;;;1.83;;
1847;SDS011;924;52.448;13.356;2022-07-06T04:21:15;4.33;;;2.03;;
1847;SDS011;924;52.448;13.356;2022-07-06T04:23:40;3.17;;;2.23;;
1847;SDS011;924;52.448;13.356;2022-07-06T04:26:06;3.60;;;1.87;;
1847;SDS011;924;52.448;13.356;2022-07-06T04:28:31;5.30;;;2.30;;
1847;SDS011;924;52.448;13.356;2022-07-06T04:30:56;2.20;;;2.00;;
1847;SDS011;924;52.448;13.356;2022-07-06T04:33:21;2.40;;;1.80;;
1847;SDS011;924;52.448;13.356;2022-07-06T04:35:47;3.83;;;2.40;;
1847;SDS011;924;52.448;13.356;2022-07-06T04:38:12;2.50;;;1.60;;
1847;SDS011;924;52.448;13.356;2022-07-06T04:40:37;3.23;;;1.63;;
1847;SDS011;924;52.448;13.356;2022-07-06T04:43:03;3.10;;;1.80;;
1847;SDS011;924;52.448;13.356;2022-07-06T04:45:29;3.50;;;2.10;;
1847;SDS011;924;52.448;13.356;2022-07-06T04:47:54;1.80;;;1.70;;
1847;SDS011;924;52.448;13.356;2022-07-06T04:50:19;2.27;;;2.07;;
1847;SDS011;924;52.448;13.356;2022-07-06T04:52:45;6.73;;;2.07;;
1847;SDS011;924;52.448;13.356;2022-07-06T04:55:10;2.33;;;1.90;;
1847;SDS011;924;52.448;13.356;2022-07-06T04:57:35;3.60;;;1.80;;
1847;SDS011;924;52.448;13.356;2022-07-06T05:00:01;2.93;;;1.80;;
1847;SDS011;924;52.448;13.356;2022-07-06T05:02:26;2.60;;;2.40;;
1847;SDS011;924;52.448;13.356;2022-07-06T05:04:51;4.90;;;2.03;;
1847;SDS011;924;52.448;13.356;2022-07-06T05:07:17;2.00;;;1.80;;
1847;SDS011;924;52.448;13.356;2022-07-06T05:09:42;2.00;;;1.80;;
1847;SDS011;924;52.448;13.356;2022-07-06T05:12:07;5.93;;;2.20;;
1847;SDS011;924;52.448;13.356;2022-07-06T05:14:33;3.50;;;1.93;;
1847;SDS011;924;52.448;13.356;2022-07-06T05:16:58;5.30;;;1.53;;
1847;SDS011;924;52.448;13.356;2022-07-06T05:19:23;6.00;;;2.83;;
1847;SDS011;924;52.448;13.356;2022-07-06T05:21:48;3.23;;;1.57;;
1847;SDS011;924;52.448;13.356;2022-07-06T05:24:14;2.00;;;1.50;;
1847;SDS011;924;52.448;13.356;2022-07-06T05:26:40;2.10;;;1.50;;
1847;SDS011;924;52.448;13.356;2022-07-06T05:29:05;2.77;;;1.43;;
1847;SDS011;924;52.448;13.356;2022-07-06T05:31:31;4.20;;;1.67;;
1847;SDS011;924;52.448;13.356;2022-07-06T05:33:56;2.93;;;1.83;;
1847;SDS011;924;52.448;13.356;2022-07-06T05:36:21;3.70;;;1.90;;
1847;SDS011;924;52.448;13.356;2022-07-06T05:38:46;2.60;;;1.60;;
1847;SDS011;924;52.448;13.356;2022-07-06T05:41:12;3.30;;;1.70;;
1847;SDS011;924;52.448;13.356;2022-07-06T05:43:37;3.53;;;1.80;;
1847;SDS011;924;52.448;13.356;2022-07-06T05:46:02;4.97;;;2.03;;
1847;SDS011;924;52.448;13.356;2022-07-06T05:48:28;1.60;;;1.40;;
1847;SDS011;924;52.448;13.356;2022-07-06T05:51:11;2.93;;;1.50;;
1847;SDS011;924;52.448;13.356;2022-07-06T05:53:37;2.63;;;1.40;;
1847;SDS011;924;52.448;13.356;2022-07-06T05:56:02;3.87;;;1.50;;
1847;SDS011;924;52.448;13.356;2022-07-06T05:58:27;3.30;;;1.60;;
1847;SDS011;924;52.448;13.356;2022-07-06T06:00:52;2.77;;;1.47;;
1847;SDS011;924;52.448;13.356;2022-07-06T06:03:18;2.17;;;1.37;;
1847;SDS011;924;52.448;13.356;2022-07-06T06:05:43;3.17;;;1.77;;
1847;SDS011;924;52.448;13.356;2022-07-06T06:08:08;1.60;;;1.50;;
1847;SDS011;924;52.448;13.356;2022-07-06T06:10:34;3.00;;;1.67;;
1847;SDS011;924;52.448;13.356;2022-07-06T06:12:59;4.30;;;2.70;;
1847;SDS011;924;52.448;13.356;2022-07-06T06:15:24;3.47;;;1.70;;
1847;SDS011;924;52.448;13.356;2022-07-06T06:17:49;3.90;;;2.00;;
1847;SDS011;924;52.448;13.356;2022-07-06T06:20:15;1.73;;;1.30;;
1847;SDS011;924;52.448;13.356;2022-07-06T06:22:44;6.60;;;2.00;;
1847;SDS011;924;52.448;13.356;2022-07-06T06:25:09;2.07;;;1.40;;
1847;SDS011;924;52.448;13.356;2022-07-06T06:27:34;3.07;;;1.77;;
1847;SDS011;924;52.448;13.356;2022-07-06T06:30:00;1.93;;;1.43;;
1847;SDS011;924;52.448;13.356;2022-07-06T06:32:25;3.10;;;1.33;;
1847;SDS011;924;52.448;13.356;2022-07-06T06:34:50;1.97;;;1.53;;
1847;SDS011;924;52.448;13.356;2022-07-06T06:37:15;2.90;;;1.43;;
1847;SDS011;924;52.448;13.356;2022-07-06T06:39:41;3.70;;;1.93;;
1847;SDS011;924;52.448;13.356;2022-07-06T06:42:06;3.10;;;1.70;;
1847;SDS011;924;52.448;13.356;2022-07-06T06:44:31;2.07;;;1.60;;
1847;SDS011;924;52.448;13.356;2022-07-06T06:46:56;3.20;;;1.77;;
1847;SDS011;924;52.448;13.356;2022-07-06T06:49:22;1.43;;;1.33;;
1847;SDS011;924;52.448;13.356;2022-07-06T06:51:47;5.10;;;2.03;;
1847;SDS011;924;52.448;13.356;2022-07-06T06:54:12;2.70;;;1.50;;
1847;SDS011;924;52.448;13.356;2022-07-06T06:56:37;3.33;;;1.77;;
1847;SDS011;924;52.448;13.356;2022-07-06T06:59:03;3.27;;;1.40;;
1847;SDS011;924;52.448;13.356;2022-07-06T07:01:28;2.03;;;1.53;;
1847;SDS011;924;52.448;13.356;2022-07-06T07:03:54;5.77;;;1.73;;
1847;SDS011;924;52.448;13.356;2022-07-06T07:06:22;2.60;;;1.90;;
1847;SDS011;924;52.448;13.356;2022-07-06T07:08:48;3.80;;;1.63;;
1847;SDS011;924;52.448;13.356;2022-07-06T07:11:13;1.93;;;1.73;;
1847;SDS011;924;52.448;13.356;2022-07-06T07:13:38;1.70;;;1.57;;
1847;SDS011;924;52.448;13.356;2022-07-06T07:16:04;2.00;;;1.40;;
1847;SDS011;924;52.448;13.356;2022-07-06T07:18:29;4.70;;;1.70;;
1847;SDS011;924;52.448;13.356;2022-07-06T07:20:54;3.07;;;2.00;;
1847;SDS011;924;52.448;13.356;2022-07-06T07:23:19;1.90;;;1.40;;
1847;SDS011;924;52.448;13.356;2022-07-06T07:25:45;4.13;;;1.90;;
1847;SDS011;924;52.448;13.356;2022-07-06T07:28:10;1.77;;;1.63;;
1847;SDS011;924;52.448;13.356;2022-07-06T07:30:35;4.13;;;1.67;;
1847;SDS011;924;52.448;13.356;2022-07-06T07:33:00;3.40;;;1.73;;
1847;SDS011;924;52.448;13.356;2022-07-06T07:35:26;2.87;;;1.63;;
1847;SDS011;924;52.448;13.356;2022-07-06T07:37:51;4.37;;;1.50;;
1847;SDS011;924;52.448;13.356;2022-07-06T07:40:17;2.10;;;1.27;;
1847;SDS011;924;52.448;13.356;2022-07-06T07:42:42;2.43;;;1.20;;
1847;SDS011;924;52.448;13.356;2022-07-06T07:45:08;1.90;;;1.43;;
1847;SDS011;924;52.448;13.356;2022-07-06T07:47:34;2.00;;;1.10;;
1847;SDS011;924;52.448;13.356;2022-07-06T07:49:59;1.53;;;1.17;;
1847;SDS011;924;52.448;13.356;2022-07-06T07:52:24;2.03;;;1.33;;
1847;SDS011;924;52.448;13.356;2022-07-06T07:54:50;2.60;;;1.40;;
1847;SDS011;924;52.448;13.356;2022-07-06T07:57:15;2.40;;;1.37;;
1847;SDS011;924;52.448;13.356;2022-07-06T07:59:40;2.40;;;1.10;;
1847;SDS011;924;52.448;13.356;2022-07-06T08:02:07;1.43;;;1.10;;
1847;SDS011;924;52.448;13.356;2022-07-06T08:04:32;2.17;;;1.17;;
1847;SDS011;924;52.448;13.356;2022-07-06T08:06:57;4.03;;;1.40;;
1847;SDS011;924;52.448;13.356;2022-07-06T08:09:22;3.07;;;1.20;;
1847;SDS011;924;52.448;13.356;2022-07-06T08:11:48;4.60;;;1.57;;
1847;SDS011;924;52.448;13.356;2022-07-06T08:14:14;4.90;;;2.10;;
1847;SDS011;924;52.448;13.356;2022-07-06T08:16:40;1.60;;;1.43;;
1847;SDS011;924;52.448;13.356;2022-07-06T08:19:05;1.80;;;1.40;;
1847;SDS011;924;52.448;13.356;2022-07-06T08:21:30;1.87;;;1.03;;
1847;SDS011;924;52.448;13.356;2022-07-06T08:23:55;1.70;;;1.23;;
1847;SDS011;924;52.448;13.356;2022-07-06T08:26:21;2.10;;;0.80;;
1847;SDS011;924;52.448;13.356;2022-07-06T08:28:46;4.27;;;1.23;;
1847;SDS011;924;52.448;13.356;2022-07-06T08:31:12;1.30;;;1.20;;
1847;SDS011;924;52.448;13.356;2022-07-06T08:33:37;1.90;;;1.10;;
1847;SDS011;924;52.448;13.356;2022-07-06T08:36:02;3.83;;;1.80;;
1847;SDS011;924;52.448;13.356;2022-07-06T08:38:27;2.80;;;1.47;;
1847;SDS011;924;52.448;13.356;2022-07-06T08:40:53;3.87;;;1.60;;
1847;SDS011;924;52.448;13.356;2022-07-06T08:43:19;2.50;;;1.43;;
1847;SDS011;924;52.448;13.356;2022-07-06T08:45:44;1.93;;;1.07;;
1847;SDS011;924;52.448;13.356;2022-07-06T08:48:10;1.43;;;1.00;;
1847;SDS011;924;52.448;13.356;2022-07-06T08:50:36;2.43;;;1.30;;
1847;SDS011;924;52.448;13.356;2022-07-06T08:53:01;2.37;;;1.50;;
1847;SDS011;924;52.448;13.356;2022-07-06T08:55:27;1.30;;;1.00;;
1847;SDS011;924;52.448;13.356;2022-07-06T08:57:52;1.70;;;1.07;;
1847;SDS011;924;52.448;13.356;2022-07-06T09:00:19;2.37;;;1.37;;
1847;SDS011;924;52.448;13.356;2022-07-06T09:02:44;3.70;;;1.20;;
1847;SDS011;924;52.448;13.356;2022-07-06T09:05:11;2.43;;;1.20;;
1847;SDS011;924;52.448;13.356;2022-07-06T09:07:39;2.20;;;1.07;;
1847;SDS011;924;52.448;13.356;2022-07-06T09:10:05;1.60;;;1.50;;
1847;SDS011;924;52.448;13.356;2022-07-06T09:12:32;4.50;;;1.20;;
1847;SDS011;924;52.448;13.356;2022-07-06T09:14:57;1.90;;;1.30;;
1847;SDS011;924;52.448;13.356;2022-07-06T09:17:26;2.00;;;1.40;;
1847;SDS011;924;52.448;13.356;2022-07-06T09:19:52;3.27;;;2.17;;
1847;SDS011;924;52.448;13.356;2022-07-06T09:22:24;6.13;;;1.20;;
1847;SDS011;924;52.448;13.356;2022-07-06T09:24:50;3.20;;;1.17;;
1847;SDS011;924;52.448;13.356;2022-07-06T09:27:15;3.17;;;1.53;;
1847;SDS011;924;52.448;13.356;2022-07-06T09:29:41;2.40;;;1.07;;
1847;SDS011;924;52.448;13.356;2022-07-06T09:32:06;3.37;;;1.40;;
1847;SDS011;924;52.448;13.356;2022-07-06T09:37:06;0.97;;;0.80;;
1847;SDS011;924;52.448;13.356;2022-07-06T09:39:32;1.43;;;0.70;;
1847;SDS011;924;52.448;13.356;2022-07-06T09:41:58;1.13;;;0.83;;
1847;SDS011;924;52.448;13.356;2022-07-06T09:44:29;1.60;;;0.90;;
1847;SDS011;924;52.448;13.356;2022-07-06T09:46:56;1.10;;;0.80;;
1847;SDS011;924;52.448;13.356;2022-07-06T09:49:22;4.70;;;1.10;;
1847;SDS011;924;52.448;13.356;2022-07-06T09:51:48;0.83;;;0.70;;
1847;SDS011;924;52.448;13.356;2022-07-06T09:54:14;2.90;;;1.13;;
1847;SDS011;924;52.448;13.356;2022-07-06T09:56:40;2.60;;;1.10;;
1847;SDS011;924;52.448;13.356;2022-07-06T09:59:12;4.67;;;0.97;;
1847;SDS011;924;52.448;13.356;2022-07-06T10:01:38;1.37;;;0.90;;
1847;SDS011;924;52.448;13.356;2022-07-06T10:04:07;1.27;;;0.83;;
1847;SDS011;924;52.448;13.356;2022-07-06T10:06:32;1.20;;;0.80;;
1847;SDS011;924;52.448;13.356;2022-07-06T10:08:58;2.70;;;0.93;;
1847;SDS011;924;52.448;13.356;2022-07-06T10:11:24;1.27;;;0.70;;
1847;SDS011;924;52.448;13.356;2022-07-06T10:13:50;1.90;;;1.20;;
1847;SDS011;924;52.448;13.356;2022-07-06T10:16:18;1.40;;;1.20;;
1847;SDS011;924;52.448;13.356;2022-07-06T10:18:44;5.43;;;1.13;;
1847;SDS011;924;52.448;13.356;2022-07-06T10:21:10;1.63;;;1.03;;
1847;SDS011;924;52.448;13.356;2022-07-06T10:23:35;1.07;;;0.70;;
1847;SDS011;924;52.448;13.356;2022-07-06T10:26:00;1.50;;;1.30;;
1847;SDS011;924;52.448;13.356;2022-07-06T10:28:29;3.07;;;1.03;;
1847;SDS011;924;52.448;13.356;2022-07-06T10:30:55;1.87;;;1.50;;
1847;SDS011;924;52.448;13.356;2022-07-06T10:33:20;1.60;;;0.83;;
1847;SDS011;924;52.448;13.356;2022-07-06T10:35:46;1.83;;;1.30;;
1847;SDS011;924;52.448;13.356;2022-07-06T10:38:12;1.87;;;1.00;;
1847;SDS011;924;52.448;13.356;2022-07-06T10:40:38;1.33;;;1.13;;
1847;SDS011;924;52.448;13.356;2022-07-06T10:43:22;1.40;;;0.90;;
1847;SDS011;924;52.448;13.356;2022-07-06T10:50:42;5.73;;;1.30;;
1847;SDS011;924;52.448;13.356;2022-07-06T10:53:14;1.50;;;1.00;;
1847;SDS011;924;52.448;13.356;2022-07-06T10:55:41;1.43;;;1.00;;
1847;SDS011;924;52.448;13.356;2022-07-06T10:58:07;3.20;;;1.00;;
1847;SDS011;924;52.448;13.356;2022-07-06T11:00:47;1.90;;;0.93;;
1847;SDS011;924;52.448;13.356;2022-07-06T11:03:31;1.23;;;1.00;;
1847;SDS011;924;52.448;13.356;2022-07-06T11:05:57;1.60;;;0.80;;
1847;SDS011;924;52.448;13.356;2022-07-06T11:08:23;2.13;;;0.80;;
1847;SDS011;924;52.448;13.356;2022-07-06T11:10:48;1.17;;;0.83;;
1847;SDS011;924;52.448;13.356;2022-07-06T11:13:26;2.17;;;0.80;;
1847;SDS011;924;52.448;13.356;2022-07-06T11:15:52;1.93;;;0.90;;
1847;SDS011;924;52.448;13.356;2022-07-06T11:18:25;2.10;;;0.90;;
1847;SDS011;924;52.448;13.356;2022-07-06T11:23:34;3.60;;;1.20;;
1847;SDS011;924;52.448;13.356;2022-07-06T11:26:00;3.63;;;1.10;;
1847;SDS011;924;52.448;13.356;2022-07-06T11:28:25;3.70;;;1.37;;
1847;SDS011;924;52.448;13.356;2022-07-06T11:30:51;5.90;;;1.17;;
1847;SDS011;924;52.448;13.356;2022-07-06T11:33:29;2.17;;;1.20;;
1847;SDS011;924;52.448;13.356;2022-07-06T11:38:39;1.70;;;1.00;;
1847;SDS011;924;52.448;13.356;2022-07-06T11:41:04;1.90;;;1.00;;
1847;SDS011;924;52.448;13.356;2022-07-06T11:43:30;4.17;;;1.57;;
1847;SDS011;924;52.448;13.356;2022-07-06T11:45:55;5.07;;;1.40;;
1847;SDS011;924;52.448;13.356;2022-07-06T11:48:20;1.60;;;0.93;;
1847;SDS011;924;52.448;13.356;2022-07-06T11:51:01;2.80;;;1.40;;
1847;SDS011;924;52.448;13.356;2022-07-06T11:53:27;2.30;;;1.40;;
1847;SDS011;924;52.448;13.356;2022-07-06T11:55:53;2.20;;;1.20;;
1847;SDS011;924;52.448;13.356;2022-07-06T11:58:20;1.17;;;0.60;;
1847;SDS011;924;52.448;13.356;2022-07-06T12:01:02;1.40;;;0.90;;
1847;SDS011;924;52.448;13.356;2022-07-06T12:03:28;2.70;;;1.00;;
1847;SDS011;924;52.448;13.356;2022-07-06T12:05:53;3.10;;;0.90;;
1847;SDS011;924;52.448;13.356;2022-07-06T12:08:18;0.90;;;0.80;;
1847;SDS011;924;52.448;13.356;2022-07-06T12:10:43;3.03;;;0.97;;
1847;SDS011;924;52.448;13.356;2022-07-06T12:13:08;2.20;;;0.90;;
1847;SDS011;924;52.448;13.356;2022-07-06T12:15:34;1.30;;;1.10;;
1847;SDS011;924;52.448;13.356;2022-07-06T12:17:59;3.13;;;1.00;;
1847;SDS011;924;52.448;13.356;2022-07-06T12:20:24;2.60;;;0.70;;
1847;SDS011;924;52.448;13.356;2022-07-06T12:23:00;1.77;;;1.40;;
1847;SDS011;924;52.448;13.356;2022-07-06T12:25:29;7.33;;;1.50;;
1847;SDS011;924;52.448;13.356;2022-07-06T12:27:54;1.47;;;1.07;;
1847;SDS011;924;52.448;13.356;2022-07-06T12:30:19;2.43;;;1.13;;
1847;SDS011;924;52.448;13.356;2022-07-06T12:32:44;4.00;;;0.90;;
1847;SDS011;924;52.448;13.356;2022-07-06T12:35:10;2.77;;;1.00;;
1847;SDS011;924;52.448;13.356;2022-07-06T12:37:36;1.53;;;0.90;;
1847;SDS011;924;52.448;13.356;2022-07-06T12:40:02;1.90;;;0.80;;
1847;SDS011;924;52.448;13.356;2022-07-06T12:42:29;1.97;;;1.00;;
1847;SDS011;924;52.448;13.356;2022-07-06T12:44:55;1.43;;;0.70;;
1847;SDS011;924;52.448;13.356;2022-07-06T12:47:20;1.30;;;0.87;;
1847;SDS011;924;52.448;13.356;2022-07-06T12:49:48;3.00;;;1.30;;
1847;SDS011;924;52.448;13.356;2022-07-06T12:52:14;3.23;;;1.30;;
1847;SDS011;924;52.448;13.356;2022-07-06T12:54:49;1.43;;;1.07;;
1847;SDS011;924;52.448;13.356;2022-07-06T12:59:41;4.03;;;1.30;;
1847;SDS011;924;52.448;13.356;2022-07-06T13:02:07;2.37;;;1.90;;
1847;SDS011;924;52.448;13.356;2022-07-06T13:04:34;2.10;;;1.77;;
1847;SDS011;924;52.448;13.356;2022-07-06T13:07:00;2.37;;;2.00;;
1847;SDS011;924;52.448;13.356;2022-07-06T13:09:26;2.43;;;1.93;;
1847;SDS011;924;52.448;13.356;2022-07-06T13:11:51;2.80;;;1.83;;
1847;SDS011;924;52.448;13.356;2022-07-06T13:14:17;3.37;;;2.70;;
1847;SDS011;924;52.448;13.356;2022-07-06T13:16:43;4.70;;;3.80;;
1847;SDS011;924;52.448;13.356;2022-07-06T13:19:08;6.17;;;5.40;;
1847;SDS011;924;52.448;13.356;2022-07-06T13:21:34;7.33;;;4.97;;
1847;SDS011;924;52.448;13.356;2022-07-06T13:23:59;7.63;;;6.70;;
1847;SDS011;924;52.448;13.356;2022-07-06T13:26:24;7.23;;;6.60;;
1847;SDS011;924;52.448;13.356;2022-07-06T13:28:50;7.10;;;6.47;;
1847;SDS011;924;52.448;13.356;2022-07-06T13:31:15;7.30;;;6.70;;
1847;SDS011;924;52.448;13.356;2022-07-06T13:33:40;7.77;;;7.13;;
1847;SDS011;924;52.448;13.356;2022-07-06T13:36:06;7.17;;;6.47;;
1847;SDS011;924;52.448;13.356;2022-07-06T13:38:31;8.97;;;8.00;;
1847;SDS011;924;52.448;13.356;2022-07-06T13:40:56;8.90;;;7.73;;
1847;SDS011;924;52.448;13.356;2022-07-06T13:43:21;9.50;;;8.70;;
1847;SDS011;924;52.448;13.356;2022-07-06T13:45:47;8.70;;;8.00;;
1847;SDS011;924;52.448;13.356;2022-07-06T13:48:12;9.77;;;7.30;;
1847;SDS011;924;52.448;13.356;2022-07-06T13:50:38;10.47;;;6.47;;
1847;SDS011;924;52.448;13.356;2022-07-06T13:53:03;5.07;;;4.30;;
1847;SDS011;924;52.448;13.356;2022-07-06T13:55:29;3.93;;;3.33;;
1847;SDS011;924;52.448;13.356;2022-07-06T13:57:54;3.73;;;2.57;;
1847;SDS011;924;52.448;13.356;2022-07-06T14:00:20;4.60;;;3.03;;
1847;SDS011;924;52.448;13.356;2022-07-06T14:02:45;4.00;;;3.60;;
1847;SDS011;924;52.448;13.356;2022-07-06T14:05:11;5.00;;;4.50;;
1847;SDS011;924;52.448;13.356;2022-07-06T14:07:36;4.90;;;4.37;;
1847;SDS011;924;52.448;13.356;2022-07-06T14:10:01;5.90;;;5.30;;
1847;SDS011;924;52.448;13.356;2022-07-06T14:12:27;5.00;;;4.60;;
1847;SDS011;924;52.448;13.356;2022-07-06T14:14:52;4.00;;;3.47;;
1847;SDS011;924;52.448;13.356;2022-07-06T14:17:17;5.80;;;2.80;;
1847;SDS011;924;52.448;13.356;2022-07-06T14:19:43;2.97;;;1.80;;
1847;SDS011;924;52.448;13.356;2022-07-06T14:22:08;2.93;;;1.20;;
1847;SDS011;924;52.448;13.356;2022-07-06T14:24:33;2.23;;;1.30;;
1847;SDS011;924;52.448;13.356;2022-07-06T14:26:59;1.77;;;1.20;;
1847;SDS011;924;52.448;13.356;2022-07-06T14:29:25;4.73;;;1.33;;
1847;SDS011;924;52.448;13.356;2022-07-06T14:31:50;2.60;;;1.03;;
1847;SDS011;924;52.448;13.356;2022-07-06T14:34:15;1.67;;;1.37;;
1847;SDS011;924;52.448;13.356;2022-07-06T14:36:40;1.63;;;1.00;;
1847;SDS011;924;52.448;13.356;2022-07-06T14:39:06;2.90;;;1.00;;
1847;SDS011;924;52.448;13.356;2022-07-06T14:41:31;1.53;;;1.30;;
1847;SDS011;924;52.448;13.356;2022-07-06T14:43:56;1.83;;;1.30;;
1847;SDS011;924;52.448;13.356;2022-07-06T14:46:21;3.33;;;1.03;;
1847;SDS011;924;52.448;13.356;2022-07-06T14:48:46;1.43;;;0.87;;
1847;SDS011;924;52.448;13.356;2022-07-06T14:51:12;1.93;;;0.90;;
1847;SDS011;924;52.448;13.356;2022-07-06T14:53:37;1.20;;;0.90;;
1847;SDS011;924;52.448;13.356;2022-07-06T14:56:02;12.63;;;2.23;;
1847;SDS011;924;52.448;13.356;2022-07-06T14:58:28;2.10;;;1.90;;
1847;SDS011;924;52.448;13.356;2022-07-06T15:00:53;3.83;;;2.70;;
1847;SDS011;924;52.448;13.356;2022-07-06T15:03:18;2.40;;;2.20;;
1847;SDS011;924;52.448;13.356;2022-07-06T15:05:43;2.23;;;2.03;;
1847;SDS011;924;52.448;13.356;2022-07-06T15:08:11;2.43;;;1.90;;
1847;SDS011;924;52.448;13.356;2022-07-06T15:10:36;2.13;;;1.90;;
1847;SDS011;924;52.448;13.356;2022-07-06T15:13:01;4.07;;;2.20;;
1847;SDS011;924;52.448;13.356;2022-07-06T15:15:27;2.07;;;1.87;;
1847;SDS011;924;52.448;13.356;2022-07-06T15:17:52;2.57;;;1.80;;
1847;SDS011;924;52.448;13.356;2022-07-06T15:20:17;3.60;;;2.47;;
1847;SDS011;924;52.448;13.356;2022-07-06T15:22:42;2.83;;;2.13;;